Time;durP1;ratioP1;P1;durP2;ratioP2;P2;SDS_P1;SDS_P2;PMS_P1;PMS_P2;Temp;Humidity;BMP_temperature;BMP_pressure;BME280_temperature;BME280_humidity;BME280_pressure;Samples;Min_cycle;Max_cycle;Signal;HPM_P1;HPM_P2
2023/05/13 00:01:06;;;;;;;21.57;15.50;;;;;;;;;;5063597;28;20416;-47
2023/05/13 00:03:32;;;;;;;17.70;15.23;;;;;;;;;;5061297;28;20508;-46
2023/05/13 00:05:58;;;;;;;18.80;15.50;;;;;;;;;;5063161;28;20420;-47
2023/05/13 00:08:24;;;;;;;20.20;13.97;;;;;;;;;;5061408;28;20426;-47
2023/05/13 00:10:50;;;;;;;19.93;14.80;;;;;;;;;;5059150;28;20449;-47
2023/05/13 00:13:16;;;;;;;23.37;13.93;;;;;;;;;;5054893;28;20433;-46
2023/05/13 00:15:42;;;;;;;20.40;14.63;;;;;;;;;;5060327;28;20452;-46
2023/05/13 00:18:08;;;;;;;17.10;14.40;;;;;;;;;;5062240;28;20493;-46
2023/05/13 00:20:34;;;;;;;22.43;16.00;;;;;;;;;;5060878;28;20432;-45
2023/05/13 00:23:02;;;;;;;19.20;14.00;;;;;;;;;;5062470;28;20415;-48
2023/05/13 00:25:27;;;;;;;18.20;14.20;;;;;;;;;;5065101;28;20464;-46
2023/05/13 00:27:53;;;;;;;23.20;14.77;;;;;;;;;;5065693;28;20911;-45
2023/05/13 00:30:19;;;;;;;21.63;13.77;;;;;;;;;;5059883;28;20835;-48
2023/05/13 00:32:46;;;;;;;23.73;12.50;;;;;;;;;;5057683;28;20505;-45
2023/05/13 00:35:12;;;;;;;17.53;12.67;;;;;;;;;;5064120;28;20465;-47
2023/05/13 00:37:38;;;;;;;20.27;14.97;;;;;;;;;;5063800;28;20458;-46
2023/05/13 00:40:04;;;;;;;20.60;13.23;;;;;;;;;;5060669;28;20425;-45
2023/05/13 00:42:30;;;;;;;18.10;14.97;;;;;;;;;;5063135;28;20407;-46
2023/05/13 00:44:55;;;;;;;17.63;15.40;;;;;;;;;;5063466;28;20480;-45
2023/05/13 00:47:22;;;;;;;20.43;14.00;;;;;;;;;;5057995;28;20409;-46
2023/05/13 00:49:47;;;;;;;20.83;15.53;;;;;;;;;;5063628;28;20851;-47
2023/05/13 00:52:13;;;;;;;21.73;14.83;;;;;;;;;;5051800;28;20481;-47
2023/05/13 00:54:39;;;;;;;19.87;15.37;;;;;;;;;;5061052;28;20874;-45
2023/05/13 00:57:05;;;;;;;19.73;15.00;;;;;;;;;;5062739;28;20493;-46
2023/05/13 00:59:31;;;;;;;20.27;16.20;;;;;;;;;;5071698;28;20526;-47
2023/05/13 01:02:00;;;;;;;21.93;15.90;;;;;;;;;;5070886;28;20410;-46
2023/05/13 01:04:42;;;;;;;20.57;16.77;;;;;;;;;;5071292;28;20507;-46
2023/05/13 01:07:26;;;;;;;23.13;18.40;;;;;;;;;;5071959;28;20440;-47
2023/05/13 01:10:18;;;;;;;26.97;18.10;;;;;;;;;;5063759;27;20762;-45
2023/05/13 01:12:45;;;;;;;24.80;18.27;;;;;;;;;;5053965;28;20498;-46
2023/05/13 01:15:16;;;;;;;25.80;17.87;;;;;;;;;;5063368;27;20436;-46
2023/05/13 01:17:47;;;;;;;22.87;17.10;;;;;;;;;;5060980;28;20457;-45
2023/05/13 01:20:13;;;;;;;18.93;16.20;;;;;;;;;;5063032;28;20436;-46
2023/05/13 01:22:39;;;;;;;24.43;17.53;;;;;;;;;;5060522;28;20505;-46
2023/05/13 01:25:05;;;;;;;31.27;17.53;;;;;;;;;;5055141;28;20466;-47
2023/05/13 01:27:31;;;;;;;25.00;16.63;;;;;;;;;;5063236;28;20422;-45
2023/05/13 01:29:57;;;;;;;24.90;17.90;;;;;;;;;;5058376;28;20429;-45
2023/05/13 01:32:23;;;;;;;19.63;16.17;;;;;;;;;;5049754;28;20441;-44
2023/05/13 01:34:51;;;;;;;25.83;17.80;;;;;;;;;;5059798;28;20436;-46
2023/05/13 01:37:17;;;;;;;22.53;19.20;;;;;;;;;;5060008;28;20410;-45
2023/05/13 01:39:43;;;;;;;24.60;18.30;;;;;;;;;;5058908;28;20439;-45
2023/05/13 01:42:09;;;;;;;22.77;17.67;;;;;;;;;;5062153;28;20521;-46
2023/05/13 01:44:35;;;;;;;24.30;18.13;;;;;;;;;;5061617;28;20457;-46
2023/05/13 01:47:01;;;;;;;27.30;18.70;;;;;;;;;;5058283;28;20417;-46
2023/05/13 01:49:27;;;;;;;25.03;16.63;;;;;;;;;;5051748;28;20774;-46
2023/05/13 01:51:53;;;;;;;19.60;15.63;;;;;;;;;;5059627;28;20418;-46
2023/05/13 01:54:19;;;;;;;20.83;16.57;;;;;;;;;;5059234;28;20421;-45
2023/05/13 01:56:45;;;;;;;21.00;16.70;;;;;;;;;;5059105;28;20489;-45
2023/05/13 01:59:11;;;;;;;26.17;17.20;;;;;;;;;;5064326;28;20495;-45
2023/05/13 02:01:39;;;;;;;21.43;15.73;;;;;;;;;;5061095;28;20445;-45
2023/05/13 02:04:05;;;;;;;21.33;16.33;;;;;;;;;;5055877;28;20430;-46
2023/05/13 02:06:31;;;;;;;54.97;23.80;;;;;;;;;;5057068;28;20919;-44
2023/05/13 02:08:57;;;;;;;59.50;28.10;;;;;;;;;;5058898;28;20453;-47
2023/05/13 02:11:23;;;;;;;84.63;28.93;;;;;;;;;;5059238;28;20409;-44
2023/05/13 02:13:49;;;;;;;55.20;26.70;;;;;;;;;;5058129;28;21020;-44
2023/05/13 02:16:19;;;;;;;43.33;21.17;;;;;;;;;;5062442;28;20414;-46
2023/05/13 02:18:45;;;;;;;47.87;22.50;;;;;;;;;;5060398;28;20468;-46
2023/05/13 02:21:11;;;;;;;39.83;20.20;;;;;;;;;;5053691;28;20507;-46
2023/05/13 02:23:37;;;;;;;38.33;21.83;;;;;;;;;;5061796;28;20416;-46
2023/05/13 02:26:03;;;;;;;35.37;21.20;;;;;;;;;;5055639;28;20453;-45
2023/05/13 02:28:29;;;;;;;33.23;21.70;;;;;;;;;;5060333;28;20447;-46
2023/05/13 02:30:55;;;;;;;47.97;24.03;;;;;;;;;;5060071;28;20435;-46
2023/05/13 02:33:21;;;;;;;38.70;22.23;;;;;;;;;;5059325;28;20426;-45
2023/05/13 02:35:47;;;;;;;34.03;20.87;;;;;;;;;;5058665;28;20448;-45
2023/05/13 02:38:13;;;;;;;34.37;19.00;;;;;;;;;;5058065;28;20465;-45
2023/05/13 02:40:39;;;;;;;28.93;18.90;;;;;;;;;;5056223;28;20831;-46
2023/05/13 02:43:05;;;;;;;34.17;19.90;;;;;;;;;;5056963;28;20415;-47
2023/05/13 02:45:31;;;;;;;32.63;20.00;;;;;;;;;;5057741;28;20430;-45
2023/05/13 02:47:57;;;;;;;29.00;18.63;;;;;;;;;;5058635;28;20801;-44
2023/05/13 02:50:23;;;;;;;31.07;18.30;;;;;;;;;;5058173;28;20402;-44
2023/05/13 02:52:49;;;;;;;29.30;18.40;;;;;;;;;;5057555;28;20428;-45
2023/05/13 02:55:15;;;;;;;28.60;19.53;;;;;;;;;;5063334;28;20433;-45
2023/05/13 02:57:41;;;;;;;25.83;17.17;;;;;;;;;;5060619;28;20467;-45
2023/05/13 03:00:10;;;;;;;20.67;15.77;;;;;;;;;;5052894;28;20999;-46
2023/05/13 03:02:36;;;;;;;26.40;15.40;;;;;;;;;;5057726;28;20413;-46
2023/05/13 03:05:03;;;;;;;18.17;14.27;;;;;;;;;;5055169;28;20435;-46
2023/05/13 03:07:30;;;;;;;22.00;16.53;;;;;;;;;;5061081;28;20430;-44
2023/05/13 03:09:56;;;;;;;19.03;14.80;;;;;;;;;;5057014;28;20422;-46
2023/05/13 03:12:22;;;;;;;19.13;14.93;;;;;;;;;;5060646;28;20421;-45
2023/05/13 03:14:50;;;;;;;20.23;16.07;;;;;;;;;;5059619;28;20432;-45
2023/05/13 03:17:17;;;;;;;21.40;16.40;;;;;;;;;;5045898;28;20468;-46
2023/05/13 03:19:44;;;;;;;22.83;16.80;;;;;;;;;;5060844;28;20457;-46
2023/05/13 03:22:10;;;;;;;19.40;16.20;;;;;;;;;;5058329;28;20409;-45
2023/05/13 03:24:36;;;;;;;17.70;15.20;;;;;;;;;;5058106;28;20512;-46
2023/05/13 03:27:02;;;;;;;22.90;17.10;;;;;;;;;;5059958;28;20402;-44
2023/05/13 03:29:28;;;;;;;23.27;16.17;;;;;;;;;;5057323;28;20425;-43
2023/05/13 03:31:54;;;;;;;22.20;15.13;;;;;;;;;;5056972;28;20427;-44
2023/05/13 03:34:20;;;;;;;21.00;17.23;;;;;;;;;;5056306;28;20468;-45
2023/05/13 03:36:46;;;;;;;20.13;15.50;;;;;;;;;;5062152;28;20905;-44
2023/05/13 03:39:12;;;;;;;18.33;15.10;;;;;;;;;;5054924;28;20820;-44
2023/05/13 03:41:38;;;;;;;17.87;14.27;;;;;;;;;;5055410;28;20457;-43
2023/05/13 03:44:05;;;;;;;20.60;14.73;;;;;;;;;;5057354;28;20425;-45
2023/05/13 03:46:32;;;;;;;20.27;15.70;;;;;;;;;;5056987;28;20402;-44
2023/05/13 03:48:58;;;;;;;19.97;15.33;;;;;;;;;;5057991;28;20425;-44
2023/05/13 03:51:24;;;;;;;22.10;14.47;;;;;;;;;;5060953;28;20449;-44
2023/05/13 03:53:52;;;;;;;20.80;16.43;;;;;;;;;;5060415;28;21019;-45
2023/05/13 03:56:20;;;;;;;21.00;15.73;;;;;;;;;;5054954;28;20420;-44
2023/05/13 03:58:46;;;;;;;22.07;16.50;;;;;;;;;;5052862;28;20465;-44
2023/05/13 04:01:13;;;;;;;23.37;14.97;;;;;;;;;;5059933;28;20419;-44
2023/05/13 04:03:41;;;;;;;21.13;15.87;;;;;;;;;;5058759;28;20749;-45
2023/05/13 04:06:07;;;;;;;17.47;14.13;;;;;;;;;;5059299;28;20407;-45
2023/05/13 04:08:33;;;;;;;25.40;14.97;;;;;;;;;;5055677;28;20422;-46
2023/05/13 04:10:59;;;;;;;21.60;14.50;;;;;;;;;;5050348;28;20433;-43
2023/05/13 04:13:25;;;;;;;25.00;15.90;;;;;;;;;;5059613;28;20469;-43
2023/05/13 04:15:53;;;;;;;28.83;18.27;;;;;;;;;;5059401;28;20420;-45
2023/05/13 04:18:19;;;;;;;22.87;17.03;;;;;;;;;;5058093;28;20460;-44
2023/05/13 04:20:46;;;;;;;24.10;17.50;;;;;;;;;;5056460;28;20457;-44
2023/05/13 04:23:12;;;;;;;24.70;17.20;;;;;;;;;;5058882;28;20401;-43
2023/05/13 04:25:38;;;;;;;27.07;18.90;;;;;;;;;;5056644;28;20512;-44
2023/05/13 04:28:04;;;;;;;33.20;19.90;;;;;;;;;;5056975;28;20412;-44
2023/05/13 04:30:30;;;;;;;33.03;20.67;;;;;;;;;;5056252;28;20416;-43
2023/05/13 04:32:56;;;;;;;23.07;16.27;;;;;;;;;;5061983;28;20995;-44
2023/05/13 04:35:22;;;;;;;23.07;16.30;;;;;;;;;;5056756;28;20431;-44
2023/05/13 04:37:49;;;;;;;27.70;17.17;;;;;;;;;;5053906;28;20453;-44
2023/05/13 04:40:15;;;;;;;28.93;17.87;;;;;;;;;;5049574;28;20433;-44
2023/05/13 04:42:41;;;;;;;26.93;18.30;;;;;;;;;;5056097;28;20409;-43
2023/05/13 04:45:08;;;;;;;39.87;19.33;;;;;;;;;;5061229;28;20434;-43
2023/05/13 04:47:36;;;;;;;37.07;18.80;;;;;;;;;;5062557;28;20792;-45
2023/05/13 04:50:02;;;;;;;30.83;18.20;;;;;;;;;;5063795;28;20415;-44
2023/05/13 04:52:30;;;;;;;32.23;22.03;;;;;;;;;;5059233;28;20455;-44
2023/05/13 04:54:56;;;;;;;39.20;21.80;;;;;;;;;;5054280;28;20449;-44
2023/05/13 04:57:23;;;;;;;34.43;19.87;;;;;;;;;;5062722;28;20501;-44
2023/05/13 04:59:49;;;;;;;43.43;23.13;;;;;;;;;;5050778;28;20430;-44
2023/05/13 05:02:15;;;;;;;46.10;26.60;;;;;;;;;;5061822;27;20405;-43
2023/05/13 05:04:41;;;;;;;37.00;24.50;;;;;;;;;;5059356;28;20469;-44
2023/05/13 05:07:07;;;;;;;35.57;21.13;;;;;;;;;;5059383;28;20424;-44
2023/05/13 05:09:33;;;;;;;31.47;19.23;;;;;;;;;;5058871;28;20430;-43
2023/05/13 05:11:59;;;;;;;33.90;19.63;;;;;;;;;;5064320;28;20417;-43
2023/05/13 05:14:25;;;;;;;32.43;18.80;;;;;;;;;;5057141;28;20451;-44
2023/05/13 05:16:51;;;;;;;27.97;17.97;;;;;;;;;;5056264;28;20415;-44
2023/05/13 05:19:22;;;;;;;25.27;17.73;;;;;;;;;;5063255;28;20465;-45
2023/05/13 05:21:48;;;;;;;23.60;16.23;;;;;;;;;;5059162;28;20417;-44
2023/05/13 05:24:14;;;;;;;25.13;18.43;;;;;;;;;;5062338;27;20424;-44
2023/05/13 05:26:40;;;;;;;22.97;14.63;;;;;;;;;;5060603;28;20397;-44
2023/05/13 05:29:06;;;;;;;29.57;17.50;;;;;;;;;;5062637;28;20408;-44
2023/05/13 05:31:32;;;;;;;24.93;16.63;;;;;;;;;;5057781;28;20417;-44
2023/05/13 05:33:59;;;;;;;22.30;15.47;;;;;;;;;;5054368;28;20791;-44
2023/05/13 05:36:25;;;;;;;23.43;16.50;;;;;;;;;;5062288;28;20397;-44
2023/05/13 05:38:51;;;;;;;22.53;15.60;;;;;;;;;;5059386;28;20511;-44
2023/05/13 05:41:18;;;;;;;24.17;15.53;;;;;;;;;;5062129;28;20835;-45
2023/05/13 05:43:44;;;;;;;19.07;14.93;;;;;;;;;;5054487;28;20426;-45
2023/05/13 05:46:10;;;;;;;22.00;15.00;;;;;;;;;;5056058;27;20439;-44
2023/05/13 05:48:36;;;;;;;18.80;15.30;;;;;;;;;;5062010;28;20409;-44
2023/05/13 05:51:03;;;;;;;23.70;17.23;;;;;;;;;;5060073;28;20428;-44
2023/05/13 05:53:30;;;;;;;18.67;14.53;;;;;;;;;;5061534;28;20504;-44
2023/05/13 05:55:56;;;;;;;22.07;14.80;;;;;;;;;;5049368;28;20463;-43
2023/05/13 05:58:25;;;;;;;19.43;15.53;;;;;;;;;;5059950;28;20466;-44
2023/05/13 06:00:53;;;;;;;22.97;15.60;;;;;;;;;;5057770;28;20804;-44
2023/05/13 06:03:19;;;;;;;22.30;15.57;;;;;;;;;;5058459;28;20894;-43
2023/05/13 06:05:46;;;;;;;23.33;15.57;;;;;;;;;;5058515;28;20408;-44
2023/05/13 06:08:13;;;;;;;24.13;16.20;;;;;;;;;;5064148;28;20961;-44
2023/05/13 06:10:39;;;;;;;24.53;16.43;;;;;;;;;;5060169;28;20432;-45
2023/05/13 06:13:05;;;;;;;20.83;15.90;;;;;;;;;;5055869;28;20416;-44
2023/05/13 06:15:31;;;;;;;23.07;16.63;;;;;;;;;;5056849;28;20919;-44
2023/05/13 06:17:57;;;;;;;22.40;16.60;;;;;;;;;;5058281;28;20470;-44
2023/05/13 06:20:23;;;;;;;24.13;18.30;;;;;;;;;;5057709;28;20521;-45
2023/05/13 06:22:51;;;;;;;30.67;20.17;;;;;;;;;;5058070;28;20417;-44
2023/05/13 06:25:18;;;;;;;28.70;21.80;;;;;;;;;;5061879;28;20430;-44
2023/05/13 06:27:44;;;;;;;139.90;67.80;;;;;;;;;;5060462;28;20440;-45
2023/05/13 06:30:11;;;;;;;37.67;23.47;;;;;;;;;;5054356;28;20864;-45
2023/05/13 06:32:37;;;;;;;27.63;22.23;;;;;;;;;;5061437;28;20514;-44
2023/05/13 06:35:03;;;;;;;27.10;18.43;;;;;;;;;;5053635;28;20540;-44
2023/05/13 06:37:30;;;;;;;26.57;20.57;;;;;;;;;;5058987;28;20440;-44
2023/05/13 06:39:58;;;;;;;27.73;17.50;;;;;;;;;;5059025;28;20892;-44
2023/05/13 06:42:25;;;;;;;24.37;19.00;;;;;;;;;;5059218;28;20408;-43
2023/05/13 06:44:52;;;;;;;21.87;19.03;;;;;;;;;;5059016;28;20901;-45
2023/05/13 06:47:19;;;;;;;27.70;19.17;;;;;;;;;;5057706;28;20422;-44
2023/05/13 06:49:45;;;;;;;20.80;17.97;;;;;;;;;;5055525;28;20440;-46
2023/05/13 06:52:12;;;;;;;28.43;19.10;;;;;;;;;;5059860;28;20425;-44
2023/05/13 06:54:39;;;;;;;20.83;17.80;;;;;;;;;;5054789;28;20921;-44
2023/05/13 06:57:06;;;;;;;20.23;16.57;;;;;;;;;;5059133;28;20409;-44
2023/05/13 06:59:32;;;;;;;21.73;16.13;;;;;;;;;;5057606;28;20852;-44
2023/05/13 07:01:58;;;;;;;19.43;15.80;;;;;;;;;;5058727;28;20911;-44
2023/05/13 07:04:25;;;;;;;16.37;14.73;;;;;;;;;;5061423;27;20502;-44
2023/05/13 07:06:53;;;;;;;17.77;15.80;;;;;;;;;;5063094;28;20448;-43
2023/05/13 07:09:21;;;;;;;18.50;15.60;;;;;;;;;;5057587;28;20388;-44
2023/05/13 07:11:47;;;;;;;18.63;15.20;;;;;;;;;;5055503;28;20759;-44
2023/05/13 07:14:14;;;;;;;16.37;14.60;;;;;;;;;;5058017;28;20428;-43
2023/05/13 07:16:40;;;;;;;19.67;15.27;;;;;;;;;;5057450;28;20378;-44
2023/05/13 07:19:06;;;;;;;17.50;15.63;;;;;;;;;;5059491;28;20489;-44
2023/05/13 07:21:32;;;;;;;15.53;14.00;;;;;;;;;;5058372;28;20431;-44
2023/05/13 07:23:58;;;;;;;16.27;14.57;;;;;;;;;;5061183;28;20413;-45
2023/05/13 07:26:25;;;;;;;18.37;15.00;;;;;;;;;;5056482;28;20495;-45
2023/05/13 07:28:51;;;;;;;15.63;13.93;;;;;;;;;;5053166;28;20421;-43
2023/05/13 07:31:17;;;;;;;18.13;14.10;;;;;;;;;;5050241;28;20921;-43
2023/05/13 07:33:43;;;;;;;16.60;14.67;;;;;;;;;;5053168;28;20420;-44
2023/05/13 07:36:09;;;;;;;15.93;14.30;;;;;;;;;;5055386;28;20486;-46
2023/05/13 07:38:35;;;;;;;19.83;15.77;;;;;;;;;;5055687;28;20446;-44
2023/05/13 07:41:01;;;;;;;19.20;14.30;;;;;;;;;;5056274;28;20452;-44
2023/05/13 07:43:27;;;;;;;17.70;14.00;;;;;;;;;;5056816;28;20372;-44
2023/05/13 07:45:53;;;;;;;16.77;15.00;;;;;;;;;;5057427;28;20799;-43
2023/05/13 07:48:19;;;;;;;18.47;14.20;;;;;;;;;;5064594;28;20460;-44
2023/05/13 07:50:46;;;;;;;17.83;13.80;;;;;;;;;;5059298;28;20917;-44
2023/05/13 07:53:14;;;;;;;15.70;12.20;;;;;;;;;;5053569;28;20651;-44
2023/05/13 07:55:40;;;;;;;16.10;11.30;;;;;;;;;;5053513;28;20531;-43
2023/05/13 07:58:06;;;;;;;19.10;11.30;;;;;;;;;;5056917;28;20971;-43
2023/05/13 08:00:34;;;;;;;12.30;11.00;;;;;;;;;;5059353;28;20428;-44
2023/05/13 08:03:01;;;;;;;12.17;10.97;;;;;;;;;;5064285;28;20467;-44
2023/05/13 08:05:27;;;;;;;11.43;10.17;;;;;;;;;;5057049;28;20424;-44
2023/05/13 08:07:53;;;;;;;12.27;9.50;;;;;;;;;;5054349;28;20429;-45
2023/05/13 08:12:56;;;;;;;15.87;13.27;;;;;;;;;;5458339;23;20214;-46
2023/05/13 08:15:22;;;;;;;13.10;10.27;;;;;;;;;;5049535;28;20598;-47
2023/05/13 08:17:48;;;;;;;12.13;10.93;;;;;;;;;;5054857;28;21018;-47
2023/05/13 08:20:14;;;;;;;12.63;10.00;;;;;;;;;;5062104;28;20409;-47
2023/05/13 08:22:42;;;;;;;17.13;11.50;;;;;;;;;;5037009;28;20950;-47
2023/05/13 08:25:10;;;;;;;14.30;10.40;;;;;;;;;;5051176;28;20432;-47
2023/05/13 08:27:36;;;;;;;11.20;9.97;;;;;;;;;;5045157;28;20930;-44
2023/05/13 08:30:02;;;;;;;15.60;13.90;;;;;;;;;;5039644;28;20422;-45
2023/05/13 08:32:28;;;;;;;51.80;48.60;;;;;;;;;;5046395;28;20453;-44
2023/05/13 08:34:54;;;;;;;153.93;144.93;;;;;;;;;;5039162;28;20410;-44
2023/05/13 08:37:20;;;;;;;232.87;217.47;;;;;;;;;;5036363;28;20468;-44
2023/05/13 08:39:46;;;;;;;10.27;9.17;;;;;;;;;;5042914;28;20500;-45
2023/05/13 08:42:14;;;;;;;12.50;10.43;;;;;;;;;;5046277;28;20437;-44
2023/05/13 08:44:43;;;;;;;11.60;9.73;;;;;;;;;;5042123;28;20417;-44
2023/05/13 08:47:15;;;;;;;10.90;8.37;;;;;;;;;;5039917;28;20912;-44
2023/05/13 08:49:41;;;;;;;9.57;8.57;;;;;;;;;;5037698;28;20503;-44
2023/05/13 08:52:08;;;;;;;10.03;7.90;;;;;;;;;;5040794;28;20510;-44
2023/05/13 08:54:35;;;;;;;9.23;8.03;;;;;;;;;;5046626;28;20408;-44
2023/05/13 08:57:01;;;;;;;13.23;7.00;;;;;;;;;;5042561;28;20418;-45
2023/05/13 08:59:27;;;;;;;9.90;8.50;;;;;;;;;;5044189;28;20472;-47
2023/05/13 09:01:53;;;;;;;13.50;8.20;;;;;;;;;;5038546;28;20526;-46
2023/05/13 09:04:19;;;;;;;10.90;8.03;;;;;;;;;;5030899;28;20410;-45
2023/05/13 09:06:48;;;;;;;8.57;7.37;;;;;;;;;;5045671;28;20413;-45
2023/05/13 09:09:15;;;;;;;12.50;8.90;;;;;;;;;;5026521;28;20439;-44
2023/05/13 09:11:41;;;;;;;15.33;10.70;;;;;;;;;;5025130;28;20430;-44
2023/05/13 09:14:10;;;;;;;7.70;6.93;;;;;;;;;;5014469;28;20403;-45
2023/05/13 09:16:36;;;;;;;8.37;7.53;;;;;;;;;;5033214;28;20530;-46
2023/05/13 09:19:03;;;;;;;9.40;6.57;;;;;;;;;;5033973;28;20511;-45
2023/05/13 09:21:34;;;;;;;12.93;9.10;;;;;;;;;;5033412;28;20521;-45
2023/05/13 09:24:07;;;;;;;6.50;5.90;;;;;;;;;;5034420;28;20410;-47
2023/05/13 09:26:33;;;;;;;7.97;5.63;;;;;;;;;;5026028;28;20906;-45
2023/05/13 09:29:20;;;;;;;5.77;5.17;;;;;;;;;;5014662;28;20502;-46
2023/05/13 09:31:50;;;;;;;7.43;4.90;;;;;;;;;;5012112;28;20529;-45
2023/05/13 09:34:24;;;;;;;5.27;4.80;;;;;;;;;;5022497;28;20517;-45
2023/05/13 09:37:06;;;;;;;6.33;4.83;;;;;;;;;;5014544;28;20411;-46
2023/05/13 09:39:41;;;;;;;6.70;5.17;;;;;;;;;;5033758;28;20503;-46
2023/05/13 09:42:17;;;;;;;7.63;5.80;;;;;;;;;;5033234;28;20441;-46
2023/05/13 09:44:46;;;;;;;10.63;5.47;;;;;;;;;;5033795;28;20500;-45
2023/05/13 09:47:15;;;;;;;6.83;4.93;;;;;;;;;;5033881;28;20414;-47
2023/05/13 09:49:42;;;;;;;7.53;5.00;;;;;;;;;;5033629;28;20468;-45
2023/05/13 09:52:10;;;;;;;5.73;5.23;;;;;;;;;;5032766;28;20535;-45
2023/05/13 09:54:36;;;;;;;5.47;4.97;;;;;;;;;;5033353;28;20934;-45
2023/05/13 09:57:02;;;;;;;5.03;4.50;;;;;;;;;;5033514;28;20801;-46
2023/05/13 09:59:31;;;;;;;7.50;4.57;;;;;;;;;;5033196;28;20541;-45
2023/05/13 10:01:58;;;;;;;4.53;4.13;;;;;;;;;;5032820;28;20426;-46
2023/05/13 10:04:25;;;;;;;4.57;3.80;;;;;;;;;;5025517;28;20419;-45
2023/05/13 10:06:51;;;;;;;4.73;3.83;;;;;;;;;;5029028;28;20849;-46
2023/05/13 10:09:17;;;;;;;5.50;3.77;;;;;;;;;;5044181;28;20424;-45
2023/05/13 10:11:46;;;;;;;4.40;4.00;;;;;;;;;;5033797;28;20430;-45
2023/05/13 10:14:12;;;;;;;4.40;4.00;;;;;;;;;;5024655;28;20526;-47
2023/05/13 10:16:39;;;;;;;4.50;4.10;;;;;;;;;;5018760;28;20588;-45
2023/05/13 10:19:06;;;;;;;4.80;4.40;;;;;;;;;;5033133;28;20454;-45
2023/05/13 10:21:35;;;;;;;6.33;5.33;;;;;;;;;;5031235;28;20406;-45
2023/05/13 10:24:01;;;;;;;5.33;4.63;;;;;;;;;;5030466;28;20504;-45
2023/05/13 10:26:27;;;;;;;4.20;3.80;;;;;;;;;;5036400;28;20438;-45
2023/05/13 10:28:54;;;;;;;4.80;4.30;;;;;;;;;;5035821;28;20413;-45
2023/05/13 10:31:20;;;;;;;4.80;4.40;;;;;;;;;;5035866;28;20899;-45
2023/05/13 10:33:46;;;;;;;7.00;4.37;;;;;;;;;;5042618;28;20432;-46
2023/05/13 10:36:27;;;;;;;7.60;5.13;;;;;;;;;;5036499;28;20817;-46
2023/05/13 10:39:12;;;;;;;6.33;4.50;;;;;;;;;;5027142;28;20568;-45
2023/05/13 10:41:53;;;;;;;6.90;4.83;;;;;;;;;;5030102;28;20457;-45
2023/05/13 10:44:19;;;;;;;7.40;4.83;;;;;;;;;;5037596;28;20405;-46
2023/05/13 10:46:49;;;;;;;5.50;5.00;;;;;;;;;;5035657;28;20403;-46
2023/05/13 10:49:15;;;;;;;5.20;4.80;;;;;;;;;;5041771;28;20472;-44
2023/05/13 10:51:45;;;;;;;5.67;5.07;;;;;;;;;;5039560;28;20909;-46
2023/05/13 10:54:19;;;;;;;4.87;4.47;;;;;;;;;;5039464;28;20928;-45
2023/05/13 10:56:45;;;;;;;6.10;4.10;;;;;;;;;;5033813;28;20769;-45
2023/05/13 10:59:12;;;;;;;8.03;4.37;;;;;;;;;;5035950;28;20496;-45
2023/05/13 11:01:45;;;;;;;7.00;5.77;;;;;;;;;;5041905;28;20409;-46
2023/05/13 11:04:15;;;;;;;7.93;4.30;;;;;;;;;;5037919;28;20400;-44
2023/05/13 11:06:43;;;;;;;6.00;4.37;;;;;;;;;;5040429;28;20492;-45
2023/05/13 11:09:13;;;;;;;5.43;4.93;;;;;;;;;;5045265;28;20461;-45
2023/05/13 11:11:39;;;;;;;7.13;5.53;;;;;;;;;;5033338;28;20424;-45
2023/05/13 11:14:07;;;;;;;5.50;4.30;;;;;;;;;;5032575;28;20417;-47
2023/05/13 11:16:34;;;;;;;5.63;5.07;;;;;;;;;;5039183;28;20442;-45
2023/05/13 11:19:01;;;;;;;6.00;5.30;;;;;;;;;;5042377;28;20468;-45
2023/05/13 11:21:35;;;;;;;8.17;5.67;;;;;;;;;;5034133;28;20409;-46
2023/05/13 11:24:04;;;;;;;6.70;4.97;;;;;;;;;;5030918;28;20410;-46
2023/05/13 11:26:47;;;;;;;6.37;4.30;;;;;;;;;;5035598;28;20411;-45
2023/05/13 11:29:13;;;;;;;11.30;5.00;;;;;;;;;;5039125;28;20422;-46
2023/05/13 11:31:57;;;;;;;12.73;6.43;;;;;;;;;;5042297;28;20417;-46
2023/05/13 11:34:24;;;;;;;7.80;4.63;;;;;;;;;;5043231;28;20405;-45
2023/05/13 11:36:56;;;;;;;6.00;4.77;;;;;;;;;;5028284;28;20519;-45
2023/05/13 11:39:25;;;;;;;4.60;4.20;;;;;;;;;;5040299;28;20485;-45
2023/05/13 11:41:51;;;;;;;7.50;4.80;;;;;;;;;;5030730;28;20433;-45
2023/05/13 11:44:21;;;;;;;4.90;4.30;;;;;;;;;;5039415;28;20417;-47
2023/05/13 11:46:54;;;;;;;8.27;4.90;;;;;;;;;;5040904;28;20414;-46
2023/05/13 11:49:29;;;;;;;6.47;4.00;;;;;;;;;;5034150;28;20409;-45
2023/05/13 11:51:57;;;;;;;6.20;4.93;;;;;;;;;;5031250;28;20846;-45
2023/05/13 11:54:23;;;;;;;5.73;4.77;;;;;;;;;;5036470;28;20468;-45
2023/05/13 11:56:49;;;;;;;7.30;5.23;;;;;;;;;;5035125;28;20500;-46
2023/05/13 11:59:15;;;;;;;14.93;5.17;;;;;;;;;;5040620;28;20453;-45
2023/05/13 12:01:41;;;;;;;10.90;6.70;;;;;;;;;;5039140;28;20674;-47
2023/05/13 12:04:07;;;;;;;5.97;4.70;;;;;;;;;;5038878;28;20496;-46
2023/05/13 12:06:34;;;;;;;6.17;5.57;;;;;;;;;;5032553;28;20428;-46
2023/05/13 12:09:06;;;;;;;5.70;4.93;;;;;;;;;;5022198;28;20439;-46
2023/05/13 12:11:32;;;;;;;11.07;8.20;;;;;;;;;;5041099;28;20417;-46
2023/05/13 12:13:59;;;;;;;7.07;4.50;;;;;;;;;;5037543;28;20946;-45
2023/05/13 12:16:25;;;;;;;4.70;4.30;;;;;;;;;;5031704;28;20743;-46
2023/05/13 12:18:55;;;;;;;5.23;4.00;;;;;;;;;;5035236;28;20620;-46
2023/05/13 12:21:21;;;;;;;3.20;2.90;;;;;;;;;;5035165;28;20257;-47
2023/05/13 12:23:47;;;;;;;4.27;3.87;;;;;;;;;;5030634;28;20906;-46
2023/05/13 12:26:13;;;;;;;6.40;3.83;;;;;;;;;;5039845;28;20182;-46
2023/05/13 12:28:39;;;;;;;5.93;4.50;;;;;;;;;;5039583;28;20501;-45
2023/05/13 12:31:05;;;;;;;8.77;5.90;;;;;;;;;;5034202;28;20415;-46
2023/05/13 12:33:41;;;;;;;5.40;4.50;;;;;;;;;;5031602;28;20207;-46
2023/05/13 12:36:19;;;;;;;7.30;6.40;;;;;;;;;;5027354;28;20417;-46
2023/05/13 12:39:05;;;;;;;4.77;4.37;;;;;;;;;;5034357;28;20572;-47
2023/05/13 12:41:31;;;;;;;12.97;7.97;;;;;;;;;;5031343;28;20406;-46
2023/05/13 12:44:07;;;;;;;5.10;4.10;;;;;;;;;;5036455;28;20413;-47
2023/05/13 12:46:33;;;;;;;7.23;5.20;;;;;;;;;;5032476;28;20417;-46
2023/05/13 12:49:00;;;;;;;5.53;4.10;;;;;;;;;;5035709;28;20490;-46
2023/05/13 12:51:27;;;;;;;7.77;6.00;;;;;;;;;;5026812;28;20445;-49
2023/05/13 12:53:53;;;;;;;5.00;4.50;;;;;;;;;;5049834;28;20942;-47
2023/05/13 12:56:23;;;;;;;5.23;4.73;;;;;;;;;;5042460;28;20900;-46
2023/05/13 12:58:49;;;;;;;6.13;3.80;;;;;;;;;;5041264;28;20459;-45
2023/05/13 13:01:16;;;;;;;5.23;4.80;;;;;;;;;;5040563;28;20768;-47
2023/05/13 13:03:42;;;;;;;4.90;4.47;;;;;;;;;;5032777;28;20800;-45
2023/05/13 13:06:09;;;;;;;9.20;5.70;;;;;;;;;;5022831;28;20418;-45
2023/05/13 13:08:35;;;;;;;6.27;4.70;;;;;;;;;;5047365;28;20417;-46
2023/05/13 13:11:01;;;;;;;8.90;5.67;;;;;;;;;;5045685;28;20755;-48
2023/05/13 13:13:27;;;;;;;7.80;5.80;;;;;;;;;;5036868;28;20425;-46
2023/05/13 13:15:53;;;;;;;7.17;4.97;;;;;;;;;;5035853;28;20537;-47
2023/05/13 13:18:19;;;;;;;7.07;4.90;;;;;;;;;;5040386;28;20896;-45
2023/05/13 13:20:45;;;;;;;6.53;5.67;;;;;;;;;;5037087;28;20486;-46
2023/05/13 13:23:11;;;;;;;5.17;4.60;;;;;;;;;;5042379;28;20434;-45
2023/05/13 13:25:37;;;;;;;7.33;5.20;;;;;;;;;;5043899;28;20425;-45
2023/05/13 13:28:03;;;;;;;8.07;5.13;;;;;;;;;;5042421;28;20464;-45
2023/05/13 13:30:29;;;;;;;5.93;5.30;;;;;;;;;;5034856;28;20920;-45
2023/05/13 13:32:55;;;;;;;8.30;5.57;;;;;;;;;;5030929;28;20522;-45
2023/05/13 13:35:21;;;;;;;7.57;4.63;;;;;;;;;;5044042;28;20496;-45
2023/05/13 13:37:47;;;;;;;5.73;4.63;;;;;;;;;;5039995;28;20462;-45
2023/05/13 13:40:13;;;;;;;6.07;5.40;;;;;;;;;;5044129;28;20945;-44
2023/05/13 13:42:39;;;;;;;6.67;5.47;;;;;;;;;;5037074;28;20963;-46
2023/05/13 13:45:05;;;;;;;8.17;5.60;;;;;;;;;;5044459;28;20483;-47
2023/05/13 13:47:32;;;;;;;5.67;5.07;;;;;;;;;;5032036;28;20846;-46
2023/05/13 13:49:58;;;;;;;10.63;5.43;;;;;;;;;;5044398;28;20417;-46
2023/05/13 13:52:26;;;;;;;5.43;4.87;;;;;;;;;;5039664;28;20433;-47
2023/05/13 13:54:52;;;;;;;10.03;4.47;;;;;;;;;;5038927;28;20505;-46
2023/05/13 13:57:18;;;;;;;8.93;4.10;;;;;;;;;;5043340;28;20441;-46
2023/05/13 13:59:44;;;;;;;5.27;4.77;;;;;;;;;;5036218;28;20516;-48
2023/05/13 14:02:10;;;;;;;4.57;3.87;;;;;;;;;;5034297;28;20199;-46
2023/05/13 14:04:36;;;;;;;9.20;4.73;;;;;;;;;;5040823;28;20266;-46
2023/05/13 14:07:02;;;;;;;8.13;4.63;;;;;;;;;;5039507;28;20175;-45
2023/05/13 14:09:28;;;;;;;5.43;4.83;;;;;;;;;;5040101;28;20528;-45
2023/05/13 14:11:54;;;;;;;7.57;5.03;;;;;;;;;;5034112;28;20986;-45
2023/05/13 14:14:20;;;;;;;8.23;4.37;;;;;;;;;;5039776;28;20504;-44
2023/05/13 14:16:46;;;;;;;14.83;9.37;;;;;;;;;;5034365;28;20521;-46
2023/05/13 14:19:12;;;;;;;7.03;4.47;;;;;;;;;;5013952;28;20462;-44
2023/05/13 14:21:38;;;;;;;11.50;7.43;;;;;;;;;;5028687;28;20410;-44
2023/05/13 14:24:04;;;;;;;7.00;4.67;;;;;;;;;;5032840;28;20456;-44
2023/05/13 14:26:30;;;;;;;6.20;4.77;;;;;;;;;;5033005;28;20414;-45
2023/05/13 14:28:56;;;;;;;5.10;4.40;;;;;;;;;;5032771;28;20409;-45